sensor_id;sensor_type;location;lat;lon;timestamp;temperature;humidity
41722;DHT22;27407;24.142;-110.310;2023-06-22T00:01:19;46.20;49.70
41722;DHT22;27407;24.142;-110.310;2023-06-22T00:03:47;46.30;49.40
41722;DHT22;27407;24.142;-110.310;2023-06-22T00:06:13;46.10;49.60
41722;DHT22;27407;24.142;-110.310;2023-06-22T00:08:40;46.20;50.20
41722;DHT22;27407;24.142;-110.310;2023-06-22T00:11:07;46.10;50.80
41722;DHT22;27407;24.142;-110.310;2023-06-22T00:13:34;46.20;50.60
41722;DHT22;27407;24.142;-110.310;2023-06-22T00:16:01;46.20;50.70
41722;DHT22;27407;24.142;-110.310;2023-06-22T00:18:27;46.10;50.60
41722;DHT22;27407;24.142;-110.310;2023-06-22T00:20:56;45.90;50.50
41722;DHT22;27407;24.142;-110.310;2023-06-22T00:23:26;45.50;51.20
41722;DHT22;27407;24.142;-110.310;2023-06-22T00:25:53;45.30;49.80
41722;DHT22;27407;24.142;-110.310;2023-06-22T00:28:20;44.60;51.20
41722;DHT22;27407;24.142;-110.310;2023-06-22T00:30:48;44.70;51.60
41722;DHT22;27407;24.142;-110.310;2023-06-22T00:33:15;44.60;51.80
41722;DHT22;27407;24.142;-110.310;2023-06-22T00:35:42;44.30;52.80
41722;DHT22;27407;24.142;-110.310;2023-06-22T00:38:09;43.90;52.40
41722;DHT22;27407;24.142;-110.310;2023-06-22T00:40:36;43.90;52.50
41722;DHT22;27407;24.142;-110.310;2023-06-22T00:43:03;43.90;52.30
41722;DHT22;27407;24.142;-110.310;2023-06-22T00:45:31;43.80;52.40
41722;DHT22;27407;24.142;-110.310;2023-06-22T00:47:58;43.40;52.50
41722;DHT22;27407;24.142;-110.310;2023-06-22T00:50:27;43.50;52.60
41722;DHT22;27407;24.142;-110.310;2023-06-22T00:53:05;43.40;51.90
41722;DHT22;27407;24.142;-110.310;2023-06-22T00:55:41;43.20;51.80
41722;DHT22;27407;24.142;-110.310;2023-06-22T00:58:13;43.20;51.60
41722;DHT22;27407;24.142;-110.310;2023-06-22T01:00:41;43.00;51.70
41722;DHT22;27407;24.142;-110.310;2023-06-22T01:03:08;42.60;51.70
41722;DHT22;27407;24.142;-110.310;2023-06-22T01:05:36;42.10;51.80
41722;DHT22;27407;24.142;-110.310;2023-06-22T01:08:08;42.10;51.40
41722;DHT22;27407;24.142;-110.310;2023-06-22T01:13:35;41.60;52.40
41722;DHT22;27407;24.142;-110.310;2023-06-22T01:16:15;41.50;52.30
41722;DHT22;27407;24.142;-110.310;2023-06-22T01:18:44;41.20;52.50
41722;DHT22;27407;24.142;-110.310;2023-06-22T01:21:15;40.80;52.40
41722;DHT22;27407;24.142;-110.310;2023-06-22T01:26:34;39.70;52.60
41722;DHT22;27407;24.142;-110.310;2023-06-22T01:29:04;39.30;53.10
41722;DHT22;27407;24.142;-110.310;2023-06-22T01:31:34;38.90;53.60
41722;DHT22;27407;24.142;-110.310;2023-06-22T01:34:05;38.80;53.40
41722;DHT22;27407;24.142;-110.310;2023-06-22T01:36:33;38.60;52.50
41722;DHT22;27407;24.142;-110.310;2023-06-22T01:39:00;38.10;52.50
41722;DHT22;27407;24.142;-110.310;2023-06-22T01:41:30;37.90;53.20
41722;DHT22;27407;24.142;-110.310;2023-06-22T01:43:58;37.80;53.40
41722;DHT22;27407;24.142;-110.310;2023-06-22T01:46:25;37.60;54.50
41722;DHT22;27407;24.142;-110.310;2023-06-22T01:48:53;37.20;55.40
41722;DHT22;27407;24.142;-110.310;2023-06-22T01:51:19;37.10;55.90
41722;DHT22;27407;24.142;-110.310;2023-06-22T01:53:46;37.00;56.60
41722;DHT22;27407;24.142;-110.310;2023-06-22T01:56:17;36.90;57.40
41722;DHT22;27407;24.142;-110.310;2023-06-22T01:59:28;36.70;58.00
41722;DHT22;27407;24.142;-110.310;2023-06-22T02:02:03;36.60;58.80
41722;DHT22;27407;24.142;-110.310;2023-06-22T02:07:08;36.50;57.30
41722;DHT22;27407;24.142;-110.310;2023-06-22T02:09:38;36.40;58.00
41722;DHT22;27407;24.142;-110.310;2023-06-22T02:12:06;36.30;59.00
41722;DHT22;27407;24.142;-110.310;2023-06-22T02:14:34;36.10;58.30
41722;DHT22;27407;24.142;-110.310;2023-06-22T02:17:01;35.90;58.00
41722;DHT22;27407;24.142;-110.310;2023-06-22T02:19:28;35.90;58.10
41722;DHT22;27407;24.142;-110.310;2023-06-22T02:21:59;35.80;58.20
41722;DHT22;27407;24.142;-110.310;2023-06-22T02:24:25;35.80;58.10
41722;DHT22;27407;24.142;-110.310;2023-06-22T02:26:52;35.70;58.20
41722;DHT22;27407;24.142;-110.310;2023-06-22T02:29:18;35.70;57.90
41722;DHT22;27407;24.142;-110.310;2023-06-22T02:31:45;35.60;58.00
41722;DHT22;27407;24.142;-110.310;2023-06-22T02:34:12;35.50;57.60
41722;DHT22;27407;24.142;-110.310;2023-06-22T02:36:46;35.40;57.90
41722;DHT22;27407;24.142;-110.310;2023-06-22T02:39:26;35.40;58.10
41722;DHT22;27407;24.142;-110.310;2023-06-22T02:41:53;35.40;58.10
41722;DHT22;27407;24.142;-110.310;2023-06-22T02:44:21;35.30;58.00
41722;DHT22;27407;24.142;-110.310;2023-06-22T02:46:48;35.30;58.20
41722;DHT22;27407;24.142;-110.310;2023-06-22T02:49:14;35.40;58.20
41722;DHT22;27407;24.142;-110.310;2023-06-22T02:51:47;35.30;58.10
41722;DHT22;27407;24.142;-110.310;2023-06-22T02:54:14;35.20;57.90
41722;DHT22;27407;24.142;-110.310;2023-06-22T02:56:40;35.30;58.10
41722;DHT22;27407;24.142;-110.310;2023-06-22T02:59:10;35.30;57.70
41722;DHT22;27407;24.142;-110.310;2023-06-22T03:01:37;35.20;57.50
41722;DHT22;27407;24.142;-110.310;2023-06-22T03:04:07;35.10;57.60
41722;DHT22;27407;24.142;-110.310;2023-06-22T03:06:33;35.00;57.70
41722;DHT22;27407;24.142;-110.310;2023-06-22T03:09:02;35.00;57.60
41722;DHT22;27407;24.142;-110.310;2023-06-22T03:11:34;34.80;56.50
41722;DHT22;27407;24.142;-110.310;2023-06-22T03:14:01;34.80;56.50
41722;DHT22;27407;24.142;-110.310;2023-06-22T03:16:28;34.80;55.30
41722;DHT22;27407;24.142;-110.310;2023-06-22T03:18:55;34.90;54.50
41722;DHT22;27407;24.142;-110.310;2023-06-22T03:21:28;34.80;54.00
41722;DHT22;27407;24.142;-110.310;2023-06-22T03:23:55;34.90;53.50
41722;DHT22;27407;24.142;-110.310;2023-06-22T03:26:22;34.80;53.90
41722;DHT22;27407;24.142;-110.310;2023-06-22T03:28:49;34.80;53.80
41722;DHT22;27407;24.142;-110.310;2023-06-22T03:31:16;34.70;53.60
41722;DHT22;27407;24.142;-110.310;2023-06-22T03:33:51;34.60;53.50
41722;DHT22;27407;24.142;-110.310;2023-06-22T03:36:18;34.70;52.90
41722;DHT22;27407;24.142;-110.310;2023-06-22T03:38:49;34.60;52.50
41722;DHT22;27407;24.142;-110.310;2023-06-22T03:41:16;34.50;52.30
41722;DHT22;27407;24.142;-110.310;2023-06-22T03:43:43;34.50;52.00
41722;DHT22;27407;24.142;-110.310;2023-06-22T03:46:09;34.50;51.30
41722;DHT22;27407;24.142;-110.310;2023-06-22T03:48:36;34.60;50.40
41722;DHT22;27407;24.142;-110.310;2023-06-22T03:51:03;34.80;49.90
41722;DHT22;27407;24.142;-110.310;2023-06-22T03:53:30;34.80;49.70
41722;DHT22;27407;24.142;-110.310;2023-06-22T03:55:57;34.70;49.40
41722;DHT22;27407;24.142;-110.310;2023-06-22T03:58:23;34.70;49.20
41722;DHT22;27407;24.142;-110.310;2023-06-22T04:00:51;34.70;48.30
41722;DHT22;27407;24.142;-110.310;2023-06-22T04:03:19;34.70;48.80
41722;DHT22;27407;24.142;-110.310;2023-06-22T04:05:46;34.70;48.90
41722;DHT22;27407;24.142;-110.310;2023-06-22T04:08:15;34.50;49.20
41722;DHT22;27407;24.142;-110.310;2023-06-22T04:10:42;34.50;49.30
41722;DHT22;27407;24.142;-110.310;2023-06-22T04:13:09;34.40;49.00
41722;DHT22;27407;24.142;-110.310;2023-06-22T04:15:36;34.50;49.00
41722;DHT22;27407;24.142;-110.310;2023-06-22T04:18:02;34.40;49.20
41722;DHT22;27407;24.142;-110.310;2023-06-22T04:20:30;34.40;49.40
41722;DHT22;27407;24.142;-110.310;2023-06-22T04:22:57;34.40;49.90
41722;DHT22;27407;24.142;-110.310;2023-06-22T04:25:24;34.30;48.80
41722;DHT22;27407;24.142;-110.310;2023-06-22T04:27:50;34.40;48.50
41722;DHT22;27407;24.142;-110.310;2023-06-22T04:30:17;34.30;48.90
41722;DHT22;27407;24.142;-110.310;2023-06-22T04:32:44;34.30;49.30
41722;DHT22;27407;24.142;-110.310;2023-06-22T04:35:12;34.30;49.30
41722;DHT22;27407;24.142;-110.310;2023-06-22T04:37:39;34.20;49.20
41722;DHT22;27407;24.142;-110.310;2023-06-22T04:40:06;34.10;49.10
41722;DHT22;27407;24.142;-110.310;2023-06-22T04:45:05;34.20;47.30
41722;DHT22;27407;24.142;-110.310;2023-06-22T04:47:32;34.30;47.10
41722;DHT22;27407;24.142;-110.310;2023-06-22T04:49:59;34.20;47.50
41722;DHT22;27407;24.142;-110.310;2023-06-22T04:52:29;34.20;47.60
41722;DHT22;27407;24.142;-110.310;2023-06-22T04:54:55;34.10;47.20
41722;DHT22;27407;24.142;-110.310;2023-06-22T04:57:23;34.10;47.40
41722;DHT22;27407;24.142;-110.310;2023-06-22T04:59:59;34.10;46.80
41722;DHT22;27407;24.142;-110.310;2023-06-22T05:02:38;34.10;47.40
41722;DHT22;27407;24.142;-110.310;2023-06-22T05:05:05;34.00;47.50
41722;DHT22;27407;24.142;-110.310;2023-06-22T05:07:35;34.20;47.50
41722;DHT22;27407;24.142;-110.310;2023-06-22T05:10:03;34.10;47.70
41722;DHT22;27407;24.142;-110.310;2023-06-22T05:12:31;34.00;47.80
41722;DHT22;27407;24.142;-110.310;2023-06-22T05:14:57;33.90;47.60
41722;DHT22;27407;24.142;-110.310;2023-06-22T05:17:24;33.90;47.20
41722;DHT22;27407;24.142;-110.310;2023-06-22T05:19:51;33.90;46.90
41722;DHT22;27407;24.142;-110.310;2023-06-22T05:22:18;33.80;46.90
41722;DHT22;27407;24.142;-110.310;2023-06-22T05:24:45;33.80;47.20
41722;DHT22;27407;24.142;-110.310;2023-06-22T05:27:12;33.70;47.10
41722;DHT22;27407;24.142;-110.310;2023-06-22T05:29:38;33.60;47.40
41722;DHT22;27407;24.142;-110.310;2023-06-22T05:32:05;33.70;47.50
41722;DHT22;27407;24.142;-110.310;2023-06-22T05:34:32;33.60;47.50
41722;DHT22;27407;24.142;-110.310;2023-06-22T05:36:59;33.70;47.80
41722;DHT22;27407;24.142;-110.310;2023-06-22T05:39:26;33.70;47.90
41722;DHT22;27407;24.142;-110.310;2023-06-22T05:41:52;33.80;47.70
41722;DHT22;27407;24.142;-110.310;2023-06-22T05:44:19;33.80;48.00
41722;DHT22;27407;24.142;-110.310;2023-06-22T05:46:46;33.70;48.40
41722;DHT22;27407;24.142;-110.310;2023-06-22T05:49:15;33.60;48.60
41722;DHT22;27407;24.142;-110.310;2023-06-22T05:51:42;33.50;48.70
41722;DHT22;27407;24.142;-110.310;2023-06-22T05:54:09;33.50;49.00
41722;DHT22;27407;24.142;-110.310;2023-06-22T05:56:36;33.40;48.90
41722;DHT22;27407;24.142;-110.310;2023-06-22T05:59:03;33.30;49.00
41722;DHT22;27407;24.142;-110.310;2023-06-22T06:01:30;33.40;49.00
41722;DHT22;27407;24.142;-110.310;2023-06-22T06:04:00;33.40;49.10
41722;DHT22;27407;24.142;-110.310;2023-06-22T06:06:27;33.30;49.00
41722;DHT22;27407;24.142;-110.310;2023-06-22T06:08:55;33.30;49.30
41722;DHT22;27407;24.142;-110.310;2023-06-22T06:11:22;33.30;49.40
41722;DHT22;27407;24.142;-110.310;2023-06-22T06:13:48;33.30;49.70
41722;DHT22;27407;24.142;-110.310;2023-06-22T06:16:15;33.10;49.70
41722;DHT22;27407;24.142;-110.310;2023-06-22T06:18:42;33.10;50.00
41722;DHT22;27407;24.142;-110.310;2023-06-22T06:21:08;33.00;50.30
41722;DHT22;27407;24.142;-110.310;2023-06-22T06:23:35;33.00;50.60
41722;DHT22;27407;24.142;-110.310;2023-06-22T06:26:02;32.90;50.80
41722;DHT22;27407;24.142;-110.310;2023-06-22T06:28:33;32.80;51.10
41722;DHT22;27407;24.142;-110.310;2023-06-22T06:30:59;32.60;51.30
41722;DHT22;27407;24.142;-110.310;2023-06-22T06:33:26;32.60;51.60
41722;DHT22;27407;24.142;-110.310;2023-06-22T06:35:53;32.60;51.80
41722;DHT22;27407;24.142;-110.310;2023-06-22T06:38:21;32.60;52.00
41722;DHT22;27407;24.142;-110.310;2023-06-22T06:40:56;32.50;52.20
41722;DHT22;27407;24.142;-110.310;2023-06-22T06:43:29;32.30;52.30
41722;DHT22;27407;24.142;-110.310;2023-06-22T06:45:56;32.20;52.50
41722;DHT22;27407;24.142;-110.310;2023-06-22T06:48:22;32.30;52.90
41722;DHT22;27407;24.142;-110.310;2023-06-22T06:50:49;32.20;53.10
41722;DHT22;27407;24.142;-110.310;2023-06-22T06:53:16;32.20;53.50
41722;DHT22;27407;24.142;-110.310;2023-06-22T06:55:42;32.00;54.80
41722;DHT22;27407;24.142;-110.310;2023-06-22T06:58:11;31.70;56.70
41722;DHT22;27407;24.142;-110.310;2023-06-22T07:00:39;31.60;55.30
41722;DHT22;27407;24.142;-110.310;2023-06-22T07:03:06;31.50;56.80
41722;DHT22;27407;24.142;-110.310;2023-06-22T07:05:33;31.40;56.70
41722;DHT22;27407;24.142;-110.310;2023-06-22T07:07:59;31.30;57.90
41722;DHT22;27407;24.142;-110.310;2023-06-22T07:10:26;31.20;58.30
41722;DHT22;27407;24.142;-110.310;2023-06-22T07:12:53;31.10;60.10
41722;DHT22;27407;24.142;-110.310;2023-06-22T07:15:19;30.90;61.50
41722;DHT22;27407;24.142;-110.310;2023-06-22T07:17:46;30.80;64.70
41722;DHT22;27407;24.142;-110.310;2023-06-22T07:20:13;30.70;62.50
41722;DHT22;27407;24.142;-110.310;2023-06-22T07:22:41;30.60;61.40
41722;DHT22;27407;24.142;-110.310;2023-06-22T07:25:08;30.50;63.00
41722;DHT22;27407;24.142;-110.310;2023-06-22T07:27:42;30.40;62.80
41722;DHT22;27407;24.142;-110.310;2023-06-22T07:30:10;30.30;64.10
41722;DHT22;27407;24.142;-110.310;2023-06-22T07:32:37;30.20;70.70
41722;DHT22;27407;24.142;-110.310;2023-06-22T07:35:04;30.10;71.50
41722;DHT22;27407;24.142;-110.310;2023-06-22T07:37:31;30.00;75.30
41722;DHT22;27407;24.142;-110.310;2023-06-22T07:39:59;29.80;83.60
41722;DHT22;27407;24.142;-110.310;2023-06-22T07:42:26;29.60;88.70
41722;DHT22;27407;24.142;-110.310;2023-06-22T07:44:53;29.70;90.60
41722;DHT22;27407;24.142;-110.310;2023-06-22T07:47:20;29.80;92.60
41722;DHT22;27407;24.142;-110.310;2023-06-22T07:49:51;29.70;92.00
41722;DHT22;27407;24.142;-110.310;2023-06-22T07:52:20;29.70;95.40
41722;DHT22;27407;24.142;-110.310;2023-06-22T07:54:47;29.80;95.80
41722;DHT22;27407;24.142;-110.310;2023-06-22T07:57:14;29.60;98.60
41722;DHT22;27407;24.142;-110.310;2023-06-22T07:59:41;29.60;99.90
41722;DHT22;27407;24.142;-110.310;2023-06-22T08:02:07;29.50;99.90
41722;DHT22;27407;24.142;-110.310;2023-06-22T08:04:35;29.50;99.90
41722;DHT22;27407;24.142;-110.310;2023-06-22T08:07:02;29.40;99.90
41722;DHT22;27407;24.142;-110.310;2023-06-22T08:09:31;29.40;99.90
41722;DHT22;27407;24.142;-110.310;2023-06-22T08:11:58;29.30;99.90
41722;DHT22;27407;24.142;-110.310;2023-06-22T08:14:29;29.40;99.90
41722;DHT22;27407;24.142;-110.310;2023-06-22T08:16:56;29.40;99.90
41722;DHT22;27407;24.142;-110.310;2023-06-22T08:19:22;29.40;99.90
41722;DHT22;27407;24.142;-110.310;2023-06-22T08:21:49;29.40;99.90
41722;DHT22;27407;24.142;-110.310;2023-06-22T08:24:15;29.30;99.90
41722;DHT22;27407;24.142;-110.310;2023-06-22T08:26:42;29.30;99.90
41722;DHT22;27407;24.142;-110.310;2023-06-22T08:29:09;29.20;99.90
41722;DHT22;27407;24.142;-110.310;2023-06-22T08:31:35;29.20;99.90
41722;DHT22;27407;24.142;-110.310;2023-06-22T08:34:02;29.10;99.90
41722;DHT22;27407;24.142;-110.310;2023-06-22T08:36:29;29.10;99.90
41722;DHT22;27407;24.142;-110.310;2023-06-22T08:38:59;29.20;99.90
41722;DHT22;27407;24.142;-110.310;2023-06-22T08:41:29;29.10;99.90
41722;DHT22;27407;24.142;-110.310;2023-06-22T08:43:55;29.00;99.90
41722;DHT22;27407;24.142;-110.310;2023-06-22T08:46:23;28.90;99.90
41722;DHT22;27407;24.142;-110.310;2023-06-22T08:48:56;28.80;99.90
41722;DHT22;27407;24.142;-110.310;2023-06-22T08:51:24;28.80;99.90
41722;DHT22;27407;24.142;-110.310;2023-06-22T08:53:50;28.90;99.90
41722;DHT22;27407;24.142;-110.310;2023-06-22T08:56:17;28.90;99.90
41722;DHT22;27407;24.142;-110.310;2023-06-22T08:58:44;28.90;99.90
41722;DHT22;27407;24.142;-110.310;2023-06-22T09:01:11;28.80;99.90
41722;DHT22;27407;24.142;-110.310;2023-06-22T09:03:37;28.80;99.90
41722;DHT22;27407;24.142;-110.310;2023-06-22T09:06:04;28.80;99.90
41722;DHT22;27407;24.142;-110.310;2023-06-22T09:08:31;28.70;99.30
41722;DHT22;27407;24.142;-110.310;2023-06-22T09:10:58;28.70;99.90
41722;DHT22;27407;24.142;-110.310;2023-06-22T09:13:25;28.80;99.90
41722;DHT22;27407;24.142;-110.310;2023-06-22T09:15:51;28.70;99.90
41722;DHT22;27407;24.142;-110.310;2023-06-22T09:18:18;28.70;99.90
41722;DHT22;27407;24.142;-110.310;2023-06-22T09:20:45;28.60;99.90
41722;DHT22;27407;24.142;-110.310;2023-06-22T09:23:12;28.40;99.90
41722;DHT22;27407;24.142;-110.310;2023-06-22T09:25:38;28.20;99.90
41722;DHT22;27407;24.142;-110.310;2023-06-22T09:28:06;28.00;99.90
41722;DHT22;27407;24.142;-110.310;2023-06-22T09:30:33;28.10;99.90
41722;DHT22;27407;24.142;-110.310;2023-06-22T09:32:59;28.10;99.90
41722;DHT22;27407;24.142;-110.310;2023-06-22T09:35:27;28.10;99.90
41722;DHT22;27407;24.142;-110.310;2023-06-22T09:37:53;28.10;99.90
41722;DHT22;27407;24.142;-110.310;2023-06-22T09:40:20;28.00;99.90
41722;DHT22;27407;24.142;-110.310;2023-06-22T09:42:47;28.00;99.90
41722;DHT22;27407;24.142;-110.310;2023-06-22T09:45:13;27.90;99.90
41722;DHT22;27407;24.142;-110.310;2023-06-22T09:47:40;27.90;99.90
41722;DHT22;27407;24.142;-110.310;2023-06-22T09:50:07;28.00;99.90
41722;DHT22;27407;24.142;-110.310;2023-06-22T09:52:34;28.00;99.90
41722;DHT22;27407;24.142;-110.310;2023-06-22T09:55:01;28.10;99.90
41722;DHT22;27407;24.142;-110.310;2023-06-22T09:57:30;28.10;99.90
41722;DHT22;27407;24.142;-110.310;2023-06-22T09:59:56;28.00;99.90
41722;DHT22;27407;24.142;-110.310;2023-06-22T10:02:23;27.80;99.90
41722;DHT22;27407;24.142;-110.310;2023-06-22T10:04:50;27.90;99.90
41722;DHT22;27407;24.142;-110.310;2023-06-22T10:07:16;27.90;99.90
41722;DHT22;27407;24.142;-110.310;2023-06-22T10:09:43;27.90;99.90
41722;DHT22;27407;24.142;-110.310;2023-06-22T10:12:10;27.80;99.90
41722;DHT22;27407;24.142;-110.310;2023-06-22T10:14:36;27.80;99.90
41722;DHT22;27407;24.142;-110.310;2023-06-22T10:17:03;27.80;99.90
41722;DHT22;27407;24.142;-110.310;2023-06-22T10:19:30;27.90;99.90
41722;DHT22;27407;24.142;-110.310;2023-06-22T10:21:56;27.90;99.90
41722;DHT22;27407;24.142;-110.310;2023-06-22T10:24:23;28.00;97.80
41722;DHT22;27407;24.142;-110.310;2023-06-22T10:26:49;28.00;94.80
41722;DHT22;27407;24.142;-110.310;2023-06-22T10:29:16;28.00;93.20
41722;DHT22;27407;24.142;-110.310;2023-06-22T10:31:43;28.00;92.40
41722;DHT22;27407;24.142;-110.310;2023-06-22T10:34:09;27.90;91.70
41722;DHT22;27407;24.142;-110.310;2023-06-22T10:36:36;27.70;92.50
41722;DHT22;27407;24.142;-110.310;2023-06-22T10:39:03;27.50;96.50
41722;DHT22;27407;24.142;-110.310;2023-06-22T10:41:29;27.30;97.30
41722;DHT22;27407;24.142;-110.310;2023-06-22T10:43:56;27.30;97.30
41722;DHT22;27407;24.142;-110.310;2023-06-22T10:46:26;27.20;95.10
41722;DHT22;27407;24.142;-110.310;2023-06-22T10:48:53;27.20;94.30
41722;DHT22;27407;24.142;-110.310;2023-06-22T10:51:21;27.30;94.40
41722;DHT22;27407;24.142;-110.310;2023-06-22T10:53:48;27.20;94.60
41722;DHT22;27407;24.142;-110.310;2023-06-22T10:56:15;27.20;93.90
41722;DHT22;27407;24.142;-110.310;2023-06-22T10:58:41;27.10;95.20
41722;DHT22;27407;24.142;-110.310;2023-06-22T11:01:08;27.10;95.50
41722;DHT22;27407;24.142;-110.310;2023-06-22T11:03:34;26.90;95.60
41722;DHT22;27407;24.142;-110.310;2023-06-22T11:06:01;26.90;95.00
41722;DHT22;27407;24.142;-110.310;2023-06-22T11:08:28;26.90;93.60
41722;DHT22;27407;24.142;-110.310;2023-06-22T11:10:54;26.90;93.50
41722;DHT22;27407;24.142;-110.310;2023-06-22T11:13:21;27.00;92.90
41722;DHT22;27407;24.142;-110.310;2023-06-22T11:15:47;27.00;92.60
41722;DHT22;27407;24.142;-110.310;2023-06-22T11:18:14;27.10;92.40
41722;DHT22;27407;24.142;-110.310;2023-06-22T11:20:41;27.10;92.40
41722;DHT22;27407;24.142;-110.310;2023-06-22T11:23:08;27.00;92.60
41722;DHT22;27407;24.142;-110.310;2023-06-22T11:25:35;26.90;92.10
41722;DHT22;27407;24.142;-110.310;2023-06-22T11:28:04;26.90;92.00
41722;DHT22;27407;24.142;-110.310;2023-06-22T11:30:31;26.90;92.00
41722;DHT22;27407;24.142;-110.310;2023-06-22T11:32:58;26.70;92.30
41722;DHT22;27407;24.142;-110.310;2023-06-22T11:35:26;26.70;95.30
41722;DHT22;27407;24.142;-110.310;2023-06-22T11:37:52;26.70;97.80
41722;DHT22;27407;24.142;-110.310;2023-06-22T11:40:19;26.60;98.70
41722;DHT22;27407;24.142;-110.310;2023-06-22T11:42:46;26.60;99.40
41722;DHT22;27407;24.142;-110.310;2023-06-22T11:45:12;26.60;99.90
41722;DHT22;27407;24.142;-110.310;2023-06-22T11:47:39;26.60;99.90
41722;DHT22;27407;24.142;-110.310;2023-06-22T11:50:06;26.50;99.90
41722;DHT22;27407;24.142;-110.310;2023-06-22T11:52:34;26.40;99.90
41722;DHT22;27407;24.142;-110.310;2023-06-22T11:55:02;26.40;99.90
41722;DHT22;27407;24.142;-110.310;2023-06-22T11:57:34;26.50;99.90
41722;DHT22;27407;24.142;-110.310;2023-06-22T12:00:01;26.50;99.90
41722;DHT22;27407;24.142;-110.310;2023-06-22T12:02:32;26.50;99.90
41722;DHT22;27407;24.142;-110.310;2023-06-22T12:04:59;26.40;99.90
41722;DHT22;27407;24.142;-110.310;2023-06-22T12:07:25;26.40;99.90
41722;DHT22;27407;24.142;-110.310;2023-06-22T12:09:52;26.40;99.90
41722;DHT22;27407;24.142;-110.310;2023-06-22T12:12:19;26.30;99.90
41722;DHT22;27407;24.142;-110.310;2023-06-22T12:14:45;26.20;99.90
41722;DHT22;27407;24.142;-110.310;2023-06-22T12:17:12;26.20;99.90
41722;DHT22;27407;24.142;-110.310;2023-06-22T12:19:39;26.20;99.90
41722;DHT22;27407;24.142;-110.310;2023-06-22T12:22:05;26.10;99.90
41722;DHT22;27407;24.142;-110.310;2023-06-22T12:24:32;26.10;99.90
41722;DHT22;27407;24.142;-110.310;2023-06-22T12:26:59;26.10;99.90
41722;DHT22;27407;24.142;-110.310;2023-06-22T12:29:25;25.90;99.90
41722;DHT22;27407;24.142;-110.310;2023-06-22T12:31:52;26.00;99.90
41722;DHT22;27407;24.142;-110.310;2023-06-22T12:34:19;26.00;99.90
41722;DHT22;27407;24.142;-110.310;2023-06-22T12:36:45;26.00;99.90
41722;DHT22;27407;24.142;-110.310;2023-06-22T12:39:14;26.10;99.90
41722;DHT22;27407;24.142;-110.310;2023-06-22T12:41:41;26.10;99.90
41722;DHT22;27407;24.142;-110.310;2023-06-22T12:44:08;26.00;99.90
41722;DHT22;27407;24.142;-110.310;2023-06-22T12:46:34;26.10;99.90
41722;DHT22;27407;24.142;-110.310;2023-06-22T12:49:04;26.00;99.90
41722;DHT22;27407;24.142;-110.310;2023-06-22T12:51:31;26.00;99.90
41722;DHT22;27407;24.142;-110.310;2023-06-22T12:53:57;25.90;99.90
41722;DHT22;27407;24.142;-110.310;2023-06-22T12:56:24;26.00;99.90
41722;DHT22;27407;24.142;-110.310;2023-06-22T12:58:51;26.00;99.90
41722;DHT22;27407;24.142;-110.310;2023-06-22T13:01:17;26.00;99.90
41722;DHT22;27407;24.142;-110.310;2023-06-22T13:03:44;26.00;99.90
41722;DHT22;27407;24.142;-110.310;2023-06-22T13:06:11;26.10;99.90
41722;DHT22;27407;24.142;-110.310;2023-06-22T13:08:37;26.20;99.90
41722;DHT22;27407;24.142;-110.310;2023-06-22T13:11:04;26.30;99.90
41722;DHT22;27407;24.142;-110.310;2023-06-22T13:13:31;26.40;99.90
41722;DHT22;27407;24.142;-110.310;2023-06-22T13:15:57;26.60;99.90
41722;DHT22;27407;24.142;-110.310;2023-06-22T13:18:24;26.70;99.90
41722;DHT22;27407;24.142;-110.310;2023-06-22T13:20:50;26.90;99.90
41722;DHT22;27407;24.142;-110.310;2023-06-22T13:23:21;27.30;91.00
41722;DHT22;27407;24.142;-110.310;2023-06-22T13:25:48;27.80;88.50
41722;DHT22;27407;24.142;-110.310;2023-06-22T13:28:14;28.10;92.70
41722;DHT22;27407;24.142;-110.310;2023-06-22T13:30:42;28.00;99.30
41722;DHT22;27407;24.142;-110.310;2023-06-22T13:33:12;27.90;99.90
41722;DHT22;27407;24.142;-110.310;2023-06-22T13:35:38;27.90;95.60
41722;DHT22;27407;24.142;-110.310;2023-06-22T13:38:05;28.30;99.90
41722;DHT22;27407;24.142;-110.310;2023-06-22T13:40:32;28.30;99.90
41722;DHT22;27407;24.142;-110.310;2023-06-22T13:42:59;28.40;99.90
41722;DHT22;27407;24.142;-110.310;2023-06-22T13:45:26;28.40;99.90
41722;DHT22;27407;24.142;-110.310;2023-06-22T13:47:53;28.60;99.90
41722;DHT22;27407;24.142;-110.310;2023-06-22T13:50:20;28.80;94.80
41722;DHT22;27407;24.142;-110.310;2023-06-22T13:52:46;29.10;90.90
41722;DHT22;27407;24.142;-110.310;2023-06-22T13:55:13;29.30;87.20
41722;DHT22;27407;24.142;-110.310;2023-06-22T13:57:41;29.60;83.30
41722;DHT22;27407;24.142;-110.310;2023-06-22T14:00:08;29.90;82.20
41722;DHT22;27407;24.142;-110.310;2023-06-22T14:02:35;30.10;80.10
41722;DHT22;27407;24.142;-110.310;2023-06-22T14:05:01;30.60;77.00
41722;DHT22;27407;24.142;-110.310;2023-06-22T14:07:28;30.90;76.40
41722;DHT22;27407;24.142;-110.310;2023-06-22T14:09:55;31.20;75.40
41722;DHT22;27407;24.142;-110.310;2023-06-22T14:12:22;31.50;73.80
41722;DHT22;27407;24.142;-110.310;2023-06-22T14:14:48;31.80;73.50
41722;DHT22;27407;24.142;-110.310;2023-06-22T14:17:15;32.00;73.90
41722;DHT22;27407;24.142;-110.310;2023-06-22T14:19:42;32.20;72.80
41722;DHT22;27407;24.142;-110.310;2023-06-22T14:22:08;32.40;72.00
41722;DHT22;27407;24.142;-110.310;2023-06-22T14:24:35;32.50;70.50
41722;DHT22;27407;24.142;-110.310;2023-06-22T14:27:02;32.60;69.90
41722;DHT22;27407;24.142;-110.310;2023-06-22T14:29:29;32.80;69.50
41722;DHT22;27407;24.142;-110.310;2023-06-22T14:31:56;32.90;68.80
41722;DHT22;27407;24.142;-110.310;2023-06-22T14:34:30;33.10;69.10
41722;DHT22;27407;24.142;-110.310;2023-06-22T14:37:08;33.30;68.20
41722;DHT22;27407;24.142;-110.310;2023-06-22T14:39:44;33.40;68.30
41722;DHT22;27407;24.142;-110.310;2023-06-22T14:42:11;33.50;68.40
41722;DHT22;27407;24.142;-110.310;2023-06-22T14:44:44;33.50;68.40
41722;DHT22;27407;24.142;-110.310;2023-06-22T14:47:11;33.70;67.90
41722;DHT22;27407;24.142;-110.310;2023-06-22T14:49:38;33.70;68.70
41722;DHT22;27407;24.142;-110.310;2023-06-22T14:52:05;33.90;67.90
41722;DHT22;27407;24.142;-110.310;2023-06-22T14:54:34;34.10;68.60
41722;DHT22;27407;24.142;-110.310;2023-06-22T14:57:01;34.30;67.90
41722;DHT22;27407;24.142;-110.310;2023-06-22T14:59:34;34.30;67.60
41722;DHT22;27407;24.142;-110.310;2023-06-22T15:02:00;34.40;67.90